createdAt,value
2023-01-09T00:00:35.288Z,3.57
2023-01-09T00:01:38.988Z,3.59
2023-01-09T00:02:41.167Z,3.58
2023-01-09T00:03:43.094Z,3.60
2023-01-09T00:04:44.923Z,3.62
2023-01-09T00:05:46.757Z,3.65
2023-01-09T00:06:54.470Z,3.67
2023-01-09T00:07:56.345Z,3.65
2023-01-09T00:08:58.173Z,3.61
2023-01-09T00:09:59.968Z,3.58
2023-01-09T00:11:02.119Z,3.56
2023-01-09T00:12:04.159Z,3.59
2023-01-09T00:13:05.991Z,3.57
2023-01-09T00:14:08.819Z,3.51
2023-01-09T00:15:12.161Z,3.44
2023-01-09T00:16:14.634Z,3.40
2023-01-09T00:17:16.544Z,3.39
2023-01-09T00:18:18.530Z,3.40
2023-01-09T00:19:20.391Z,3.43
2023-01-09T00:20:22.237Z,3.46
2023-01-09T00:21:24.019Z,3.47
2023-01-09T00:22:25.947Z,3.49
2023-01-09T00:23:27.852Z,3.51
2023-01-09T00:24:30.443Z,3.53
2023-01-09T00:25:32.277Z,3.56
2023-01-09T00:26:34.946Z,3.56
2023-01-09T00:27:37.189Z,3.55
2023-01-09T00:28:39.053Z,3.58
2023-01-09T00:29:46.314Z,3.57
2023-01-09T00:30:56.217Z,3.59
2023-01-09T00:31:58.152Z,3.64
2023-01-09T00:33:00.086Z,3.68
2023-01-09T00:34:03.795Z,3.72
2023-01-09T00:35:05.823Z,3.76
2023-01-09T00:36:07.928Z,3.80
2023-01-09T00:37:12.166Z,3.84
2023-01-09T00:38:14.020Z,3.87
2023-01-09T00:39:15.911Z,3.89
2023-01-09T00:40:18.296Z,3.91
2023-01-09T00:41:23.206Z,3.91
2023-01-09T00:42:26.665Z,3.88
2023-01-09T00:43:31.757Z,3.87
2023-01-09T00:44:36.354Z,3.87
2023-01-09T00:45:38.375Z,3.89
2023-01-09T00:46:42.483Z,3.87
2023-01-09T00:47:46.360Z,3.88
2023-01-09T00:48:50.051Z,3.89
2023-01-09T00:49:52.955Z,3.92
2023-01-09T00:50:57.823Z,3.93
2023-01-09T00:51:59.708Z,3.93
2023-01-09T00:53:11.099Z,3.91
2023-01-09T00:54:15.249Z,3.88
2023-01-09T00:55:17.437Z,3.90
2023-01-09T00:56:20.881Z,3.94
2023-01-09T00:57:22.667Z,3.94
2023-01-09T00:58:24.574Z,3.98
2023-01-09T00:59:27.656Z,4.01
2023-01-09T01:00:29.595Z,4.04
2023-01-09T01:01:31.547Z,4.08
2023-01-09T01:02:33.528Z,4.12
2023-01-09T01:03:35.401Z,4.14
2023-01-09T01:04:55.631Z,4.16
2023-01-09T01:06:16.202Z,4.17
2023-01-09T01:07:36.874Z,4.15
2023-01-09T01:08:38.644Z,4.13
2023-01-09T01:09:40.564Z,4.12
2023-01-09T01:10:42.871Z,4.14
2023-01-09T01:11:44.670Z,4.15
2023-01-09T01:12:47.190Z,4.15
2023-01-09T01:13:48.983Z,4.17
2023-01-09T01:14:52.627Z,4.18
2023-01-09T01:15:54.549Z,4.19
2023-01-09T01:16:56.424Z,4.20
2023-01-09T01:17:58.244Z,4.19
2023-01-09T01:19:00.081Z,4.19
2023-01-09T01:20:01.942Z,4.18
2023-01-09T01:21:10.507Z,4.13
2023-01-09T01:22:12.444Z,4.15
2023-01-09T01:23:14.426Z,4.14
2023-01-09T01:24:20.083Z,4.13
2023-01-09T01:25:22.337Z,4.13
2023-01-09T01:26:24.256Z,4.13
2023-01-09T01:27:26.047Z,4.12
2023-01-09T01:28:27.867Z,4.14
2023-01-09T01:29:29.689Z,4.16
2023-01-09T01:30:31.845Z,4.15
2023-01-09T01:31:33.683Z,4.15
2023-01-09T01:32:35.535Z,4.16
2023-01-09T01:33:37.415Z,4.13
2023-01-09T01:34:39.237Z,4.11
2023-01-09T01:35:41.110Z,4.11
2023-01-09T01:36:43.018Z,4.12
2023-01-09T01:37:44.862Z,4.15
2023-01-09T01:38:47.723Z,4.17
2023-01-09T01:39:49.541Z,4.19
2023-01-09T01:40:54.924Z,4.21
2023-01-09T01:41:56.866Z,4.24
2023-01-09T01:42:59.046Z,4.25
2023-01-09T01:44:02.051Z,4.27
2023-01-09T01:45:13.232Z,4.25
2023-01-09T01:46:16.654Z,4.26
2023-01-09T01:47:19.844Z,4.26
2023-01-09T01:48:29.274Z,4.23
2023-01-09T01:49:31.730Z,4.16
2023-01-09T01:50:37.242Z,4.13
2023-01-09T01:51:45.494Z,4.01
2023-01-09T01:52:51.396Z,3.93
2023-01-09T01:53:55.778Z,3.89
2023-01-09T01:54:57.567Z,3.84
2023-01-09T01:56:17.852Z,3.88
2023-01-09T01:57:19.680Z,3.91
2023-01-09T01:58:21.615Z,3.97
2023-01-09T01:59:23.342Z,4.01
2023-01-09T02:00:28.356Z,4.05
2023-01-09T02:01:30.671Z,4.10
2023-01-09T02:02:33.291Z,4.12
2023-01-09T02:03:36.016Z,4.12
2023-01-09T02:04:41.596Z,4.14
2023-01-09T02:05:43.853Z,4.16
2023-01-09T02:06:47.351Z,4.18
2023-01-09T02:07:49.227Z,4.20
2023-01-09T02:08:51.252Z,4.20
2023-01-09T02:09:53.952Z,4.19
2023-01-09T02:10:55.829Z,4.17
2023-01-09T02:11:58.184Z,4.14
2023-01-09T02:13:01.228Z,4.03
2023-01-09T02:14:03.569Z,3.95
2023-01-09T02:15:10.985Z,3.95
2023-01-09T02:16:12.878Z,3.99
2023-01-09T02:17:25.317Z,4.02
2023-01-09T02:18:46.367Z,4.01
2023-01-09T02:19:59.582Z,4.06
2023-01-09T02:21:16.415Z,4.11
2023-01-09T02:22:30.913Z,4.16
2023-01-09T02:23:38.597Z,4.17
2023-01-09T02:24:43.668Z,4.19
2023-01-09T02:26:03.976Z,4.19
2023-01-09T02:27:19.292Z,4.19
2023-01-09T02:28:24.253Z,4.17
2023-01-09T02:29:26.060Z,4.16
2023-01-09T02:30:32.172Z,4.18
2023-01-09T02:31:33.997Z,4.17
2023-01-09T02:32:35.788Z,4.17
2023-01-09T02:33:47.689Z,4.17
2023-01-09T02:35:11.795Z,4.19
2023-01-09T02:36:13.603Z,4.20
2023-01-09T02:37:26.419Z,4.22
2023-01-09T02:38:34.085Z,4.24
2023-01-09T02:39:41.908Z,4.25
2023-01-09T02:40:56.762Z,4.28
2023-01-09T02:42:06.289Z,4.29
2023-01-09T02:43:08.712Z,4.30
2023-01-09T02:44:22.634Z,4.32
2023-01-09T02:45:24.432Z,4.33
2023-01-09T02:46:26.344Z,4.34
2023-01-09T02:47:28.335Z,4.34
2023-01-09T02:48:31.267Z,4.35
2023-01-09T02:49:34.814Z,4.35
2023-01-09T02:50:40.560Z,4.32
2023-01-09T02:52:00.809Z,4.30
2023-01-09T02:53:17.720Z,4.26
2023-01-09T02:54:31.735Z,4.24
2023-01-09T02:55:36.494Z,4.25
2023-01-09T02:57:04.722Z,4.29
2023-01-09T02:58:09.609Z,4.29
2023-01-09T02:59:19.226Z,4.27
2023-01-09T03:00:35.004Z,4.23
2023-01-09T03:01:46.611Z,4.21
2023-01-09T03:02:52.144Z,4.18
2023-01-09T03:04:03.330Z,4.18
2023-01-09T03:05:24.021Z,4.23
2023-01-09T03:06:44.776Z,4.23
2023-01-09T03:07:52.224Z,4.26
2023-01-09T03:09:01.705Z,4.29
2023-01-09T03:10:08.796Z,4.33
2023-01-09T03:11:12.125Z,4.36
2023-01-09T03:12:19.435Z,4.38
2023-01-09T03:13:22.944Z,4.41
2023-01-09T03:14:26.505Z,4.41
2023-01-09T03:15:29.791Z,4.42
2023-01-09T03:16:33.126Z,4.43
2023-01-09T03:17:39.284Z,4.44
2023-01-09T03:18:42.302Z,4.45
2023-01-09T03:19:46.033Z,4.46
2023-01-09T03:20:48.269Z,4.45
2023-01-09T03:21:50.578Z,4.46
2023-01-09T03:22:56.527Z,4.45
2023-01-09T03:23:59.979Z,4.43
2023-01-09T03:25:01.947Z,4.43
2023-01-09T03:26:03.698Z,4.44
2023-01-09T03:27:09.589Z,4.38
2023-01-09T03:28:30.134Z,4.37
2023-01-09T03:29:32.280Z,4.38
2023-01-09T03:30:35.675Z,4.39
2023-01-09T03:31:37.562Z,4.38
2023-01-09T03:32:39.370Z,4.40
2023-01-09T03:33:41.578Z,4.41
2023-01-09T03:34:43.410Z,4.41
2023-01-09T03:35:45.314Z,4.41
2023-01-09T03:36:47.182Z,4.41
2023-01-09T03:37:49.015Z,4.44
2023-01-09T03:38:51.728Z,4.44
2023-01-09T03:39:53.666Z,4.47
2023-01-09T03:40:55.464Z,4.46
2023-01-09T03:41:57.528Z,4.47
2023-01-09T03:42:59.282Z,4.47
2023-01-09T03:44:01.114Z,4.45
2023-01-09T03:45:02.959Z,4.46
2023-01-09T03:46:05.183Z,4.46
2023-01-09T03:47:06.964Z,4.47
2023-01-09T03:48:08.790Z,4.48
2023-01-09T03:49:10.590Z,4.49
2023-01-09T03:50:12.445Z,4.49
2023-01-09T03:51:14.343Z,4.48
2023-01-09T03:52:16.212Z,4.46
2023-01-09T03:53:18.155Z,4.47
2023-01-09T03:54:19.936Z,4.48
2023-01-09T03:55:21.884Z,4.48
2023-01-09T03:56:23.861Z,4.50
2023-01-09T03:57:25.931Z,4.51
2023-01-09T03:58:27.897Z,4.48
2023-01-09T03:59:33.684Z,4.45
2023-01-09T04:00:35.489Z,4.47
2023-01-09T04:01:37.445Z,4.48
2023-01-09T04:02:39.701Z,4.49
2023-01-09T04:03:41.691Z,4.50
2023-01-09T04:04:43.440Z,4.52
2023-01-09T04:05:46.492Z,4.53
2023-01-09T04:06:48.371Z,4.54
2023-01-09T04:07:50.356Z,4.54
2023-01-09T04:08:52.180Z,4.56
2023-01-09T04:09:53.946Z,4.57
2023-01-09T04:10:55.712Z,4.57
2023-01-09T04:11:57.543Z,4.57
2023-01-09T04:12:59.555Z,4.57
2023-01-09T04:14:01.434Z,4.57
2023-01-09T04:15:03.348Z,4.58
2023-01-09T04:16:05.798Z,4.59
2023-01-09T04:17:07.645Z,4.58
2023-01-09T04:18:09.547Z,4.57
2023-01-09T04:19:11.425Z,4.55
2023-01-09T04:20:13.309Z,4.51
2023-01-09T04:21:15.061Z,4.51
2023-01-09T04:22:16.882Z,4.52
2023-01-09T04:23:19.417Z,4.50
2023-01-09T04:24:21.426Z,4.51
2023-01-09T04:25:23.435Z,4.51
2023-01-09T04:26:25.284Z,4.54
2023-01-09T04:27:27.082Z,4.54
2023-01-09T04:28:28.884Z,4.50
2023-01-09T04:29:30.693Z,4.48
2023-01-09T04:30:32.816Z,4.50
2023-01-09T04:31:34.752Z,4.46
2023-01-09T04:32:36.612Z,4.46
2023-01-09T04:33:38.405Z,4.47
2023-01-09T04:34:40.229Z,4.41
2023-01-09T04:35:42.040Z,4.41
2023-01-09T04:36:43.828Z,4.45
2023-01-09T04:37:45.640Z,4.45
2023-01-09T04:38:47.584Z,4.45
2023-01-09T04:39:49.988Z,4.47
2023-01-09T04:40:51.878Z,4.46
2023-01-09T04:41:53.716Z,4.46
2023-01-09T04:42:55.509Z,4.48
2023-01-09T04:43:57.329Z,4.50
2023-01-09T04:44:59.198Z,4.50
2023-01-09T04:46:01.384Z,4.48
2023-01-09T04:47:03.230Z,4.46
2023-01-09T04:48:05.282Z,4.49
2023-01-09T04:49:07.208Z,4.50
2023-01-09T04:50:09.838Z,4.49
2023-01-09T04:51:13.943Z,4.47
2023-01-09T04:52:15.891Z,4.49
2023-01-09T04:53:17.661Z,4.51
2023-01-09T04:54:20.047Z,4.52
2023-01-09T04:55:21.913Z,4.45
2023-01-09T04:56:23.767Z,4.38
2023-01-09T04:57:25.634Z,4.38
2023-01-09T04:58:27.433Z,4.35
2023-01-09T04:59:29.333Z,4.34
2023-01-09T05:00:31.781Z,4.32
2023-01-09T05:01:33.728Z,4.34
2023-01-09T05:02:36.351Z,4.37
2023-01-09T05:03:38.143Z,4.40
2023-01-09T05:04:40.057Z,4.40
2023-01-09T05:05:41.988Z,4.37
2023-01-09T05:06:43.772Z,4.35
2023-01-09T05:07:45.565Z,4.29
2023-01-09T05:08:47.455Z,4.26
2023-01-09T05:09:49.407Z,4.26
2023-01-09T05:10:51.290Z,4.26
2023-01-09T05:11:53.056Z,4.22
2023-01-09T05:12:54.802Z,4.17
2023-01-09T05:13:56.900Z,4.11
2023-01-09T05:14:58.672Z,4.09
2023-01-09T05:16:00.558Z,4.09
2023-01-09T05:17:02.478Z,4.11
2023-01-09T05:18:04.305Z,4.13
2023-01-09T05:19:06.324Z,4.11
2023-01-09T05:20:08.575Z,4.08
2023-01-09T05:21:10.446Z,4.07
2023-01-09T05:22:13.135Z,4.04
2023-01-09T05:23:14.943Z,4.01
2023-01-09T05:24:16.893Z,3.96
2023-01-09T05:25:18.669Z,3.95
2023-01-09T05:26:24.327Z,3.94
2023-01-09T05:27:27.733Z,3.96
2023-01-09T05:28:29.587Z,4.03
2023-01-09T05:29:31.408Z,4.09
2023-01-09T05:30:33.221Z,4.09
2023-01-09T05:31:35.109Z,4.10
2023-01-09T05:32:36.909Z,4.12
2023-01-09T05:33:38.654Z,4.15
2023-01-09T05:34:40.442Z,4.16
2023-01-09T05:35:42.273Z,4.16
2023-01-09T05:36:44.188Z,4.20
2023-01-09T05:37:46.261Z,4.20
2023-01-09T05:38:48.097Z,4.23
2023-01-09T05:39:49.906Z,4.25
2023-01-09T05:40:51.710Z,4.22
2023-01-09T05:41:53.708Z,4.24
2023-01-09T05:42:55.482Z,4.26
2023-01-09T05:43:57.287Z,4.30
2023-01-09T05:44:59.053Z,4.32
2023-01-09T05:46:01.151Z,4.34
2023-01-09T05:47:03.127Z,4.38
2023-01-09T05:48:04.929Z,4.42
2023-01-09T05:49:06.790Z,4.48
2023-01-09T05:50:08.874Z,4.50
2023-01-09T05:51:10.834Z,4.53
2023-01-09T05:52:12.685Z,4.57
2023-01-09T05:53:14.739Z,4.60
2023-01-09T05:54:16.569Z,4.61
2023-01-09T05:55:18.386Z,4.63
2023-01-09T05:56:20.163Z,4.65
2023-01-09T05:57:22.163Z,4.65
2023-01-09T05:58:23.924Z,4.64
2023-01-09T05:59:25.778Z,4.64
2023-01-09T06:00:27.717Z,4.64
2023-01-09T06:01:29.551Z,4.61
2023-01-09T06:02:31.551Z,4.63
2023-01-09T06:03:33.846Z,4.63
2023-01-09T06:04:35.692Z,4.61
2023-01-09T06:05:37.605Z,4.61
2023-01-09T06:06:41.128Z,4.64
2023-01-09T06:07:43.174Z,4.64
2023-01-09T06:08:44.941Z,4.64
2023-01-09T06:09:46.908Z,4.62
2023-01-09T06:10:48.892Z,4.56
2023-01-09T06:11:50.725Z,4.53
2023-01-09T06:12:53.544Z,4.48
2023-01-09T06:13:55.433Z,4.45
2023-01-09T06:14:57.273Z,4.45
2023-01-09T06:15:59.254Z,4.47
2023-01-09T06:17:01.057Z,4.46
2023-01-09T06:18:03.337Z,4.45
2023-01-09T06:19:06.236Z,4.47
2023-01-09T06:20:08.530Z,4.48
2023-01-09T06:21:10.347Z,4.51
2023-01-09T06:22:12.292Z,4.53
2023-01-09T06:23:14.313Z,4.57
2023-01-09T06:24:16.171Z,4.59
2023-01-09T06:25:18.443Z,4.57
2023-01-09T06:26:20.338Z,4.58
2023-01-09T06:27:22.157Z,4.59
2023-01-09T06:28:24.007Z,4.60
2023-01-09T06:29:25.854Z,4.58
2023-01-09T06:30:27.676Z,4.56
2023-01-09T06:31:29.678Z,4.54
2023-01-09T06:32:31.477Z,4.57
2023-01-09T06:33:33.345Z,4.59
2023-01-09T06:34:35.290Z,4.61
2023-01-09T06:35:37.071Z,4.65
2023-01-09T06:36:39.039Z,4.67
2023-01-09T06:37:40.967Z,4.69
2023-01-09T06:38:42.972Z,4.71
2023-01-09T06:39:44.878Z,4.72
2023-01-09T06:40:46.615Z,4.73
2023-01-09T06:41:48.806Z,4.75
2023-01-09T06:42:50.933Z,4.74
2023-01-09T06:43:52.793Z,4.74
2023-01-09T06:44:54.686Z,4.75
2023-01-09T06:45:57.158Z,4.77
2023-01-09T06:46:59.162Z,4.79
2023-01-09T06:48:00.943Z,4.84
2023-01-09T06:49:02.745Z,4.85
2023-01-09T06:50:04.800Z,4.85
2023-01-09T06:51:06.657Z,4.84
2023-01-09T06:52:08.534Z,4.85
2023-01-09T06:53:11.081Z,4.86
2023-01-09T06:54:12.911Z,4.86
2023-01-09T06:55:14.877Z,4.87
2023-01-09T06:56:16.750Z,4.89
2023-01-09T06:57:18.639Z,4.90
2023-01-09T06:58:20.865Z,4.89
2023-01-09T06:59:22.736Z,4.92
2023-01-09T07:00:24.820Z,4.93
2023-01-09T07:01:26.824Z,4.93
2023-01-09T07:02:28.801Z,4.93
2023-01-09T07:03:33.007Z,4.92
2023-01-09T07:04:35.720Z,4.92
2023-01-09T07:05:42.645Z,4.94
2023-01-09T07:06:47.382Z,4.95
2023-01-09T07:07:49.179Z,4.96
2023-01-09T07:08:51.066Z,4.98
2023-01-09T07:09:53.238Z,5.02
2023-01-09T07:10:55.104Z,5.04
2023-01-09T07:11:56.932Z,5.05
2023-01-09T07:12:58.743Z,5.04
2023-01-09T07:14:00.556Z,5.03
2023-01-09T07:15:02.345Z,5.01
2023-01-09T07:16:05.912Z,5.04
2023-01-09T07:17:07.803Z,5.02
2023-01-09T07:18:09.697Z,5.04
2023-01-09T07:19:11.554Z,5.02
2023-01-09T07:20:13.282Z,5.03
2023-01-09T07:21:15.168Z,5.00
2023-01-09T07:22:17.477Z,5.03
2023-01-09T07:23:19.316Z,5.05
2023-01-09T07:24:21.203Z,5.06
2023-01-09T07:25:23.056Z,5.06
2023-01-09T07:26:24.852Z,5.07
2023-01-09T07:27:26.630Z,5.05
2023-01-09T07:28:28.489Z,5.03
2023-01-09T07:29:30.466Z,5.04
2023-01-09T07:30:33.923Z,5.06
2023-01-09T07:31:35.821Z,5.07
2023-01-09T07:32:38.842Z,5.06
2023-01-09T07:33:40.691Z,5.06
2023-01-09T07:34:42.513Z,5.03
2023-01-09T07:35:44.371Z,5.05
2023-01-09T07:36:47.097Z,5.06
2023-01-09T07:37:48.931Z,5.06
2023-01-09T07:38:50.729Z,5.05
2023-01-09T07:39:52.597Z,5.09
2023-01-09T07:40:54.356Z,5.09
2023-01-09T07:41:56.358Z,5.12
2023-01-09T07:42:58.106Z,5.16
2023-01-09T07:43:59.888Z,5.21
2023-01-09T07:45:01.793Z,5.25
2023-01-09T07:46:03.655Z,5.29
2023-01-09T07:47:05.720Z,5.34
2023-01-09T07:48:07.670Z,5.39
2023-01-09T07:49:09.534Z,5.41
2023-01-09T07:50:11.577Z,5.44
2023-01-09T07:51:13.956Z,5.47
2023-01-09T07:52:15.926Z,5.50
2023-01-09T07:53:20.273Z,5.53
2023-01-09T07:54:22.169Z,5.55
2023-01-09T07:55:23.931Z,5.58
2023-01-09T07:56:25.806Z,5.61
2023-01-09T07:57:27.749Z,5.64
2023-01-09T07:58:29.605Z,5.66
2023-01-09T07:59:31.565Z,5.70
2023-01-09T08:00:33.429Z,5.75
2023-01-09T08:01:35.356Z,5.78
2023-01-09T08:02:37.401Z,5.82
2023-01-09T08:03:39.259Z,5.85
2023-01-09T08:04:41.134Z,5.88
2023-01-09T08:05:43.047Z,5.90
2023-01-09T08:06:44.901Z,5.93
2023-01-09T08:07:46.919Z,5.96
2023-01-09T08:08:48.831Z,5.97
2023-01-09T08:09:50.715Z,5.98
2023-01-09T08:10:52.562Z,5.98
2023-01-09T08:11:56.224Z,5.99
2023-01-09T08:12:59.381Z,6.00
2023-01-09T08:14:01.215Z,6.01
2023-01-09T08:15:03.150Z,6.03
2023-01-09T08:16:05.251Z,6.03
2023-01-09T08:17:07.035Z,6.04
2023-01-09T08:18:09.119Z,6.06
2023-01-09T08:19:12.363Z,6.07
2023-01-09T08:20:15.548Z,6.08
2023-01-09T08:21:17.346Z,6.10
2023-01-09T08:22:19.559Z,6.11
2023-01-09T08:23:21.418Z,6.14
2023-01-09T08:24:23.299Z,6.16
2023-01-09T08:25:25.165Z,6.18
2023-01-09T08:26:26.906Z,6.18
2023-01-09T08:27:28.676Z,6.19
2023-01-09T08:28:30.562Z,6.20
2023-01-09T08:29:32.362Z,6.19
2023-01-09T08:30:34.169Z,6.20
2023-01-09T08:31:35.994Z,6.19
2023-01-09T08:32:38.094Z,6.19
2023-01-09T08:33:40.581Z,6.19
2023-01-09T08:34:42.481Z,6.21
2023-01-09T08:35:44.903Z,6.21
2023-01-09T08:36:46.790Z,6.24
2023-01-09T08:37:49.223Z,6.25
2023-01-09T08:38:51.159Z,6.25
2023-01-09T08:39:53.633Z,6.27
2023-01-09T08:40:55.497Z,6.26
2023-01-09T08:42:15.886Z,6.26
2023-01-09T08:43:36.069Z,6.28
2023-01-09T08:44:56.343Z,6.27
2023-01-09T08:46:17.082Z,6.24
2023-01-09T08:47:20.722Z,6.26
2023-01-09T08:48:22.584Z,6.27
2023-01-09T08:49:24.510Z,6.29
2023-01-09T08:50:26.378Z,6.30
2023-01-09T08:51:28.239Z,6.33
2023-01-09T08:52:31.019Z,6.31
2023-01-09T08:53:32.809Z,6.29
2023-01-09T08:54:39.112Z,6.30
2023-01-09T08:55:41.133Z,6.26
2023-01-09T08:56:42.907Z,6.24
2023-01-09T08:57:48.806Z,6.24
2023-01-09T08:58:50.608Z,6.27
2023-01-09T08:59:52.576Z,6.28
2023-01-09T09:00:54.399Z,6.31
2023-01-09T09:01:56.386Z,6.31
2023-01-09T09:02:59.739Z,6.31
2023-01-09T09:04:01.582Z,6.30
2023-01-09T09:05:03.488Z,6.27
2023-01-09T09:06:09.767Z,6.27
2023-01-09T09:07:11.541Z,6.28
2023-01-09T09:08:13.457Z,6.30
2023-01-09T09:09:15.442Z,6.28
2023-01-09T09:10:18.278Z,6.29
2023-01-09T09:11:20.163Z,6.28
2023-01-09T09:12:22.626Z,6.25
2023-01-09T09:13:24.503Z,6.27
2023-01-09T09:14:44.895Z,6.28
2023-01-09T09:15:46.788Z,6.32
2023-01-09T09:16:49.627Z,6.32
2023-01-09T09:17:53.945Z,6.36
2023-01-09T09:18:55.699Z,6.37
2023-01-09T09:19:57.558Z,6.36
2023-01-09T09:20:59.391Z,6.34
2023-01-09T09:22:01.233Z,6.34
2023-01-09T09:23:03.682Z,6.35
2023-01-09T09:24:05.682Z,6.35
2023-01-09T09:25:07.712Z,6.32
2023-01-09T09:26:09.600Z,6.30
2023-01-09T09:27:11.486Z,6.32
2023-01-09T09:28:13.344Z,6.34
2023-01-09T09:29:15.226Z,6.35
2023-01-09T09:30:18.403Z,6.36
2023-01-09T09:31:20.332Z,6.35
2023-01-09T09:32:22.303Z,6.37
2023-01-09T09:33:24.078Z,6.38
2023-01-09T09:34:25.846Z,6.39
2023-01-09T09:35:28.748Z,6.37
2023-01-09T09:36:30.689Z,6.39
2023-01-09T09:37:32.596Z,6.41
2023-01-09T09:38:34.462Z,6.45
2023-01-09T09:39:36.245Z,6.47
2023-01-09T09:40:58.372Z,6.49
2023-01-09T09:42:37.330Z,6.51
2023-01-09T09:44:20.218Z,6.52
2023-01-09T09:45:31.217Z,6.53
2023-01-09T09:46:38.727Z,6.54
2023-01-09T09:47:49.374Z,6.56
2023-01-09T09:49:00.045Z,6.54
2023-01-09T09:50:26.321Z,6.47
2023-01-09T09:51:51.132Z,6.48
2023-01-09T09:53:02.109Z,6.51
2023-01-09T09:54:03.828Z,6.51
2023-01-09T09:55:15.324Z,6.51
2023-01-09T09:56:19.016Z,6.50
2023-01-09T09:57:23.716Z,6.52
2023-01-09T09:58:37.733Z,6.53
2023-01-09T09:59:40.743Z,6.55
2023-01-09T10:00:42.776Z,6.57
2023-01-09T10:01:57.960Z,6.59
2023-01-09T10:03:05.118Z,6.60
2023-01-09T10:04:11.204Z,6.61
2023-01-09T10:05:17.343Z,6.64
2023-01-09T10:06:28.651Z,6.67
2023-01-09T10:07:33.674Z,6.69
2023-01-09T10:08:35.958Z,6.70
2023-01-09T10:09:43.811Z,6.73
2023-01-09T10:10:52.766Z,6.73
2023-01-09T10:11:59.291Z,6.74
2023-01-09T10:13:21.509Z,6.71
2023-01-09T10:14:24.778Z,6.69
2023-01-09T10:15:32.651Z,6.69
2023-01-09T10:16:45.845Z,6.67
2023-01-09T10:18:07.613Z,6.69
2023-01-09T10:19:36.258Z,6.72
2023-01-09T10:20:41.095Z,6.74
2023-01-09T10:21:58.336Z,6.75
2023-01-09T10:23:15.680Z,6.76
2023-01-09T10:24:27.179Z,6.76
2023-01-09T10:25:29.024Z,6.79
2023-01-09T10:26:51.215Z,6.79
2023-01-09T10:27:52.978Z,6.80
2023-01-09T10:29:00.722Z,6.81
2023-01-09T10:30:21.736Z,6.84
2023-01-09T10:31:30.269Z,6.87
2023-01-09T10:32:32.076Z,6.88
2023-01-09T10:33:42.631Z,6.89
2023-01-09T10:34:56.931Z,6.92
2023-01-09T10:35:58.777Z,6.94
2023-01-09T10:37:19.103Z,6.97
2023-01-09T10:38:24.152Z,6.99
2023-01-09T10:39:35.234Z,6.99
2023-01-09T10:40:40.751Z,7.01
2023-01-09T10:41:56.144Z,7.03
2023-01-09T10:43:01.019Z,7.00
2023-01-09T10:44:07.886Z,6.99
2023-01-09T10:45:36.030Z,6.99
2023-01-09T10:46:58.177Z,7.04
2023-01-09T10:48:06.523Z,7.06
2023-01-09T10:49:13.072Z,7.07
2023-01-09T10:50:28.853Z,7.08
2023-01-09T10:51:39.949Z,7.10
2023-01-09T10:52:42.875Z,7.10
2023-01-09T10:53:48.999Z,7.12
2023-01-09T10:54:59.437Z,7.10
2023-01-09T10:56:04.928Z,7.07
2023-01-09T10:57:12.167Z,7.03
2023-01-09T10:58:14.942Z,6.97
2023-01-09T10:59:17.580Z,6.99
2023-01-09T11:00:24.088Z,7.01
2023-01-09T11:01:26.120Z,7.05
2023-01-09T11:02:29.968Z,7.07
2023-01-09T11:03:31.784Z,7.09
2023-01-09T11:04:36.461Z,7.11
2023-01-09T11:05:38.200Z,7.09
2023-01-09T11:06:47.939Z,7.10
2023-01-09T11:07:51.710Z,7.09
2023-01-09T11:08:55.859Z,7.11
2023-01-09T11:10:02.012Z,7.12
2023-01-09T11:11:04.009Z,7.14
2023-01-09T11:12:23.172Z,7.15
2023-01-09T11:13:34.964Z,7.15
2023-01-09T11:14:37.627Z,7.16
2023-01-09T11:15:39.421Z,7.18
2023-01-09T11:17:02.526Z,7.19
2023-01-09T11:18:24.856Z,7.20
2023-01-09T11:19:27.389Z,7.18
2023-01-09T11:20:30.011Z,7.18
2023-01-09T11:21:32.160Z,7.19
2023-01-09T11:22:50.642Z,7.15
2023-01-09T11:23:52.678Z,7.14
2023-01-09T11:25:00.601Z,7.13
2023-01-09T11:26:02.737Z,7.11
2023-01-09T11:27:13.650Z,7.12
2023-01-09T11:28:15.479Z,7.10
2023-01-09T11:29:19.668Z,7.11
2023-01-09T11:30:27.151Z,7.13
2023-01-09T11:31:29.338Z,7.14
2023-01-09T11:32:32.338Z,7.13
2023-01-09T11:33:41.541Z,7.12
2023-01-09T11:34:46.310Z,7.12
2023-01-09T11:35:55.528Z,7.12
2023-01-09T11:37:07.183Z,7.12
2023-01-09T11:38:15.434Z,7.12
2023-01-09T11:39:25.447Z,7.15
2023-01-09T11:40:27.599Z,7.17
2023-01-09T11:41:37.503Z,7.20
2023-01-09T11:42:51.766Z,7.20
2023-01-09T11:43:55.366Z,7.18
2023-01-09T11:44:59.062Z,7.12
2023-01-09T11:46:02.682Z,7.13
2023-01-09T11:47:24.362Z,7.14
2023-01-09T11:48:26.178Z,7.10
2023-01-09T11:49:30.117Z,7.05
2023-01-09T11:50:32.679Z,7.02
2023-01-09T11:51:35.718Z,7.03
2023-01-09T11:52:37.559Z,7.01
2023-01-09T11:53:46.137Z,6.99
2023-01-09T11:54:50.901Z,7.00
2023-01-09T11:56:01.448Z,7.01
2023-01-09T11:57:03.227Z,7.01
2023-01-09T11:58:05.423Z,6.99
2023-01-09T11:59:26.811Z,6.96
2023-01-09T12:00:29.967Z,6.99
2023-01-09T12:01:50.630Z,6.95
2023-01-09T12:03:11.471Z,6.94
2023-01-09T12:04:19.325Z,6.94
2023-01-09T12:05:24.176Z,6.96
2023-01-09T12:06:29.039Z,6.96
2023-01-09T12:07:33.889Z,6.97
2023-01-09T12:08:56.352Z,6.99
2023-01-09T12:10:12.198Z,6.99
2023-01-09T12:11:27.306Z,7.01
2023-01-09T12:12:47.895Z,7.01
2023-01-09T12:14:02.138Z,7.02
2023-01-09T12:15:12.701Z,6.99
2023-01-09T12:16:33.258Z,6.97
2023-01-09T12:17:53.131Z,6.96
2023-01-09T12:18:57.842Z,6.95
2023-01-09T12:20:14.459Z,6.94
2023-01-09T12:21:31.452Z,6.91
2023-01-09T12:22:47.368Z,6.90
2023-01-09T12:23:55.738Z,6.91
2023-01-09T12:24:57.598Z,6.92
2023-01-09T12:26:05.308Z,6.92
2023-01-09T12:27:13.076Z,6.91
2023-01-09T12:28:37.175Z,6.93
2023-01-09T12:29:42.147Z,6.95
2023-01-09T12:30:43.928Z,6.93
2023-01-09T12:31:48.797Z,6.90
2023-01-09T12:32:53.500Z,6.88
2023-01-09T12:34:08.643Z,6.89
2023-01-09T12:35:10.486Z,6.89
2023-01-09T12:36:15.754Z,6.87
2023-01-09T12:37:35.408Z,6.87
2023-01-09T12:38:55.334Z,6.88
2023-01-09T12:40:12.532Z,6.88
2023-01-09T12:41:23.266Z,6.85
2023-01-09T12:42:25.148Z,6.81
2023-01-09T12:43:45.727Z,6.78
2023-01-09T12:45:13.897Z,6.76
2023-01-09T12:46:18.491Z,6.75
2023-01-09T12:47:26.440Z,6.77
2023-01-09T12:48:47.065Z,6.79
2023-01-09T12:49:48.895Z,6.80
2023-01-09T12:51:13.030Z,6.78
2023-01-09T12:52:23.639Z,6.79
2023-01-09T12:53:35.103Z,6.78
2023-01-09T12:54:43.037Z,6.79
2023-01-09T12:55:51.662Z,6.81
2023-01-09T12:56:56.212Z,6.84
2023-01-09T12:57:59.850Z,6.83
2023-01-09T12:59:07.481Z,6.85
2023-01-09T13:00:09.366Z,6.84
2023-01-09T13:01:32.836Z,6.79
2023-01-09T13:02:39.592Z,6.80
2023-01-09T13:04:04.616Z,6.77
2023-01-09T13:05:16.259Z,6.80
2023-01-09T13:06:21.192Z,6.76
2023-01-09T13:07:27.875Z,6.74
2023-01-09T13:08:41.930Z,6.73
2023-01-09T13:09:53.680Z,6.74
2023-01-09T13:11:19.856Z,6.75
2023-01-09T13:12:24.930Z,6.72
2023-01-09T13:13:31.079Z,6.75
2023-01-09T13:14:59.021Z,6.76
2023-01-09T13:16:10.855Z,6.80
2023-01-09T13:17:31.057Z,6.82
2023-01-09T13:18:42.944Z,6.85
2023-01-09T13:19:46.454Z,6.86
2023-01-09T13:20:49.989Z,6.86
2023-01-09T13:21:52.503Z,6.85
2023-01-09T13:22:55.390Z,6.87
2023-01-09T13:24:16.059Z,6.83
2023-01-09T13:25:27.208Z,6.81
2023-01-09T13:26:47.346Z,6.83
2023-01-09T13:27:56.446Z,6.82
2023-01-09T13:29:03.518Z,6.82
2023-01-09T13:30:19.811Z,6.82
2023-01-09T13:31:56.925Z,6.84
2023-01-09T13:33:10.864Z,6.78
2023-01-09T13:34:22.388Z,6.74
2023-01-09T13:35:24.764Z,6.73
2023-01-09T13:36:29.206Z,6.72
2023-01-09T13:37:32.661Z,6.74
2023-01-09T13:38:36.505Z,6.72
2023-01-09T13:39:38.486Z,6.71
2023-01-09T13:40:40.452Z,6.72
2023-01-09T13:42:10.268Z,6.73
2023-01-09T13:43:15.183Z,6.74
2023-01-09T13:44:25.521Z,6.72
2023-01-09T13:45:29.041Z,6.72
2023-01-09T13:46:39.661Z,6.72
2023-01-09T13:47:41.737Z,6.69
2023-01-09T13:48:43.808Z,6.65
2023-01-09T13:49:45.655Z,6.65
2023-01-09T13:50:48.465Z,6.61
2023-01-09T13:51:56.877Z,6.63
2023-01-09T13:53:18.562Z,6.60
2023-01-09T13:54:40.293Z,6.64
2023-01-09T13:56:02.827Z,6.63
2023-01-09T13:57:19.718Z,6.65
2023-01-09T13:58:22.901Z,6.66
2023-01-09T13:59:28.865Z,6.64
2023-01-09T14:00:36.544Z,6.61
2023-01-09T14:01:42.057Z,6.63
2023-01-09T14:02:47.279Z,6.64
2023-01-09T14:04:09.122Z,6.65
2023-01-09T14:05:12.430Z,6.61
2023-01-09T14:06:16.504Z,6.65
2023-01-09T14:07:26.110Z,6.63
2023-01-09T14:08:29.063Z,6.61
2023-01-09T14:09:31.141Z,6.58
2023-01-09T14:10:35.917Z,6.58
2023-01-09T14:11:37.850Z,6.56
2023-01-09T14:12:41.180Z,6.55
2023-01-09T14:13:46.625Z,6.57
2023-01-09T14:14:49.315Z,6.59
2023-01-09T14:15:52.315Z,6.60
2023-01-09T14:16:54.158Z,6.59
2023-01-09T14:18:01.188Z,6.60
2023-01-09T14:19:15.097Z,6.60
2023-01-09T14:20:28.456Z,6.61
2023-01-09T14:22:02.762Z,6.61
2023-01-09T14:23:25.131Z,6.64
2023-01-09T14:24:27.130Z,6.61
2023-01-09T14:25:30.771Z,6.59
2023-01-09T14:26:43.104Z,6.57
2023-01-09T14:28:00.265Z,6.59
2023-01-09T14:29:20.632Z,6.60
2023-01-09T14:30:28.174Z,6.63
2023-01-09T14:31:31.767Z,6.64